sensor_id;sensor_type;location;lat;lon;timestamp;pressure;altitude;pressure_sealevel;temperature;humidity
6198;BME280;3132;42.622;23.328;2023-06-22T00:01:48;93277.16;;;19.90;73.49
6198;BME280;3132;42.622;23.328;2023-06-22T00:04:13;93244.16;;;19.79;72.92
6198;BME280;3132;42.622;23.328;2023-06-22T00:06:39;93274.09;;;20.09;72.71
6198;BME280;3132;42.622;23.328;2023-06-22T00:09:04;93272.53;;;20.08;73.61
6198;BME280;3132;42.622;23.328;2023-06-22T00:11:32;93275.88;;;19.96;74.50
6198;BME280;3132;42.622;23.328;2023-06-22T00:13:58;93272.75;;;19.94;74.50
6198;BME280;3132;42.622;23.328;2023-06-22T00:16:24;93276.59;;;20.05;74.00
6198;BME280;3132;42.622;23.328;2023-06-22T00:18:49;93262.53;;;19.84;73.38
6198;BME280;3132;42.622;23.328;2023-06-22T00:21:15;93262.66;;;19.88;72.66
6198;BME280;3132;42.622;23.328;2023-06-22T00:23:40;93262.31;;;19.89;71.95
6198;BME280;3132;42.622;23.328;2023-06-22T00:26:06;93259.81;;;19.93;73.25
6198;BME280;3132;42.622;23.328;2023-06-22T00:28:32;93235.09;;;19.80;72.30
6198;BME280;3132;42.622;23.328;2023-06-22T00:30:57;93245.84;;;19.84;72.29
6198;BME280;3132;42.622;23.328;2023-06-22T00:33:22;93239.13;;;19.86;71.40
6198;BME280;3132;42.622;23.328;2023-06-22T00:35:48;93241.88;;;19.98;70.79
6198;BME280;3132;42.622;23.328;2023-06-22T00:38:13;93239.72;;;19.92;70.54
6198;BME280;3132;42.622;23.328;2023-06-22T00:40:39;93240.47;;;19.92;71.64
6198;BME280;3132;42.622;23.328;2023-06-22T00:43:05;93242.88;;;19.85;72.17
6198;BME280;3132;42.622;23.328;2023-06-22T00:45:30;93240.53;;;19.84;71.58
6198;BME280;3132;42.622;23.328;2023-06-22T00:47:57;93246.94;;;19.83;70.44
6198;BME280;3132;42.622;23.328;2023-06-22T00:50:25;93246.56;;;19.93;70.42
6198;BME280;3132;42.622;23.328;2023-06-22T00:52:52;93245.09;;;20.04;70.18
6198;BME280;3132;42.622;23.328;2023-06-22T00:55:20;93248.09;;;20.02;70.80
6198;BME280;3132;42.622;23.328;2023-06-22T00:57:46;93247.44;;;20.05;70.49
6198;BME280;3132;42.622;23.328;2023-06-22T01:00:14;93243.69;;;19.77;71.19
6198;BME280;3132;42.622;23.328;2023-06-22T01:02:42;93226.31;;;19.88;70.68
6198;BME280;3132;42.622;23.328;2023-06-22T01:05:12;93246.53;;;20.01;71.73
6198;BME280;3132;42.622;23.328;2023-06-22T01:11:11;93258.13;;;19.88;73.29
6198;BME280;3132;42.622;23.328;2023-06-22T01:13:46;93258.78;;;19.85;72.11
6198;BME280;3132;42.622;23.328;2023-06-22T01:16:30;93235.88;;;19.43;73.47
6198;BME280;3132;42.622;23.328;2023-06-22T01:19:05;93257.00;;;19.60;72.42
6198;BME280;3132;42.622;23.328;2023-06-22T01:21:35;93251.78;;;19.81;72.68
6198;BME280;3132;42.622;23.328;2023-06-22T01:24:23;93248.13;;;19.94;72.95
6198;BME280;3132;42.622;23.328;2023-06-22T01:29:57;93255.66;;;19.46;74.45
6198;BME280;3132;42.622;23.328;2023-06-22T01:32:28;93255.00;;;19.49;74.07
6198;BME280;3132;42.622;23.328;2023-06-22T01:34:56;93237.72;;;19.51;72.67
6198;BME280;3132;42.622;23.328;2023-06-22T01:37:22;93239.91;;;19.49;73.87
6198;BME280;3132;42.622;23.328;2023-06-22T01:39:48;93267.59;;;19.60;74.03
6198;BME280;3132;42.622;23.328;2023-06-22T01:42:14;93230.56;;;19.52;73.76
6198;BME280;3132;42.622;23.328;2023-06-22T01:44:39;93263.25;;;19.64;73.74
6198;BME280;3132;42.622;23.328;2023-06-22T01:47:06;93279.25;;;19.68;73.77
6198;BME280;3132;42.622;23.328;2023-06-22T01:49:32;93273.84;;;19.64;73.47
6198;BME280;3132;42.622;23.328;2023-06-22T01:51:57;93259.97;;;19.59;72.93
6198;BME280;3132;42.622;23.328;2023-06-22T01:54:23;93234.81;;;19.36;73.22
6198;BME280;3132;42.622;23.328;2023-06-22T01:56:49;93263.53;;;19.63;72.71
6198;BME280;3132;42.622;23.328;2023-06-22T01:59:24;93278.50;;;19.67;72.62
6198;BME280;3132;42.622;23.328;2023-06-22T02:02:02;93241.34;;;19.47;72.42
6198;BME280;3132;42.622;23.328;2023-06-22T02:04:52;93275.97;;;19.71;73.60
6198;BME280;3132;42.622;23.328;2023-06-22T02:07:23;93274.44;;;19.61;73.94
6198;BME280;3132;42.622;23.328;2023-06-22T02:09:50;93289.75;;;19.64;74.32
6198;BME280;3132;42.622;23.328;2023-06-22T02:12:21;93289.00;;;19.47;75.48
6198;BME280;3132;42.622;23.328;2023-06-22T02:14:48;93268.94;;;19.37;75.42
6198;BME280;3132;42.622;23.328;2023-06-22T02:17:14;93270.03;;;19.28;76.18
6198;BME280;3132;42.622;23.328;2023-06-22T02:19:42;93259.13;;;19.38;76.15
6198;BME280;3132;42.622;23.328;2023-06-22T02:22:08;93268.44;;;19.44;76.67
6198;BME280;3132;42.622;23.328;2023-06-22T02:24:33;93250.72;;;19.36;76.69
6198;BME280;3132;42.622;23.328;2023-06-22T02:27:01;93271.41;;;19.42;77.67
6198;BME280;3132;42.622;23.328;2023-06-22T02:29:27;93284.19;;;19.40;77.87
6198;BME280;3132;42.622;23.328;2023-06-22T02:31:53;93266.13;;;19.25;77.81
6198;BME280;3132;42.622;23.328;2023-06-22T02:34:18;93267.88;;;19.30;77.93
6198;BME280;3132;42.622;23.328;2023-06-22T02:36:48;93266.75;;;19.39;78.21
6198;BME280;3132;42.622;23.328;2023-06-22T02:39:21;93271.44;;;19.34;78.69
6198;BME280;3132;42.622;23.328;2023-06-22T02:41:51;93254.94;;;19.28;79.01
6198;BME280;3132;42.622;23.328;2023-06-22T02:44:17;93274.06;;;19.34;79.47
6198;BME280;3132;42.622;23.328;2023-06-22T02:46:43;93268.94;;;19.29;79.49
6198;BME280;3132;42.622;23.328;2023-06-22T02:49:10;93268.16;;;19.19;79.78
6198;BME280;3132;42.622;23.328;2023-06-22T02:51:37;93254.47;;;19.09;80.28
6198;BME280;3132;42.622;23.328;2023-06-22T02:54:05;93268.16;;;19.19;79.79
6198;BME280;3132;42.622;23.328;2023-06-22T02:56:30;93279.38;;;19.25;80.33
6198;BME280;3132;42.622;23.328;2023-06-22T02:58:55;93272.84;;;19.14;80.87
6198;BME280;3132;42.622;23.328;2023-06-22T03:01:26;93289.16;;;19.42;80.23
6198;BME280;3132;42.622;23.328;2023-06-22T03:03:53;93289.44;;;19.57;79.66
6198;BME280;3132;42.622;23.328;2023-06-22T03:06:18;93278.28;;;19.81;78.75
6198;BME280;3132;42.622;23.328;2023-06-22T03:08:51;93280.69;;;20.03;77.82
6198;BME280;3132;42.622;23.328;2023-06-22T03:11:17;93287.88;;;20.31;76.86
6198;BME280;3132;42.622;23.328;2023-06-22T03:13:43;93265.03;;;20.18;76.74
6198;BME280;3132;42.622;23.328;2023-06-22T03:16:08;93287.94;;;20.23;77.08
6198;BME280;3132;42.622;23.328;2023-06-22T03:18:34;93289.78;;;20.22;77.60
6198;BME280;3132;42.622;23.328;2023-06-22T03:20:59;93297.72;;;20.31;77.08
6198;BME280;3132;42.622;23.328;2023-06-22T03:23:28;93308.88;;;20.45;77.12
6198;BME280;3132;42.622;23.328;2023-06-22T03:25:53;93315.69;;;20.54;76.47
6198;BME280;3132;42.622;23.328;2023-06-22T03:28:21;93304.19;;;20.62;76.61
6198;BME280;3132;42.622;23.328;2023-06-22T03:30:46;93309.97;;;20.85;76.02
6198;BME280;3132;42.622;23.328;2023-06-22T03:33:12;93313.63;;;20.81;74.73
6198;BME280;3132;42.622;23.328;2023-06-22T03:35:37;93321.84;;;21.08;74.06
6198;BME280;3132;42.622;23.328;2023-06-22T03:38:03;93314.75;;;21.33;73.03
6198;BME280;3132;42.622;23.328;2023-06-22T03:40:29;93283.69;;;21.13;73.67
6198;BME280;3132;42.622;23.328;2023-06-22T03:42:54;93305.25;;;21.11;74.27
6198;BME280;3132;42.622;23.328;2023-06-22T03:45:20;93315.16;;;21.23;74.27
6198;BME280;3132;42.622;23.328;2023-06-22T03:47:45;93320.09;;;21.45;73.91
6198;BME280;3132;42.622;23.328;2023-06-22T03:50:11;93329.13;;;21.32;74.07
6198;BME280;3132;42.622;23.328;2023-06-22T03:52:36;93330.44;;;21.58;72.53
6198;BME280;3132;42.622;23.328;2023-06-22T03:55:02;93332.75;;;21.80;71.37
6198;BME280;3132;42.622;23.328;2023-06-22T03:57:27;93340.41;;;21.94;70.74
6198;BME280;3132;42.622;23.328;2023-06-22T03:59:56;93328.69;;;21.30;71.36
6198;BME280;3132;42.622;23.328;2023-06-22T04:02:21;93325.19;;;20.76;74.27
6198;BME280;3132;42.622;23.328;2023-06-22T04:04:47;93334.84;;;21.22;72.49
6198;BME280;3132;42.622;23.328;2023-06-22T04:07:12;93343.06;;;21.94;70.33
6198;BME280;3132;42.622;23.328;2023-06-22T04:09:37;93343.75;;;22.03;69.84
6198;BME280;3132;42.622;23.328;2023-06-22T04:12:03;93313.16;;;21.85;68.90
6198;BME280;3132;42.622;23.328;2023-06-22T04:14:29;93340.88;;;22.20;68.36
6198;BME280;3132;42.622;23.328;2023-06-22T04:16:54;93343.75;;;22.15;68.98
6198;BME280;3132;42.622;23.328;2023-06-22T04:19:19;93327.69;;;22.11;70.01
6198;BME280;3132;42.622;23.328;2023-06-22T04:21:45;93328.44;;;22.12;70.13
6198;BME280;3132;42.622;23.328;2023-06-22T04:24:14;93321.13;;;22.45;69.41
6198;BME280;3132;42.622;23.328;2023-06-22T04:26:39;93318.03;;;22.67;67.96
6198;BME280;3132;42.622;23.328;2023-06-22T04:29:07;93320.34;;;22.81;67.59
6198;BME280;3132;42.622;23.328;2023-06-22T04:31:37;93314.84;;;23.01;67.23
6198;BME280;3132;42.622;23.328;2023-06-22T04:34:06;93309.06;;;23.82;65.43
6198;BME280;3132;42.622;23.328;2023-06-22T04:36:37;93311.94;;;25.81;58.74
6198;BME280;3132;42.622;23.328;2023-06-22T04:39:12;93310.69;;;25.98;57.56
6198;BME280;3132;42.622;23.328;2023-06-22T04:41:38;93314.09;;;25.15;60.49
6198;BME280;3132;42.622;23.328;2023-06-22T04:44:15;93314.06;;;24.96;62.03
6198;BME280;3132;42.622;23.328;2023-06-22T04:46:51;93316.03;;;23.87;65.07
6198;BME280;3132;42.622;23.328;2023-06-22T04:49:20;93324.88;;;24.03;65.42
6198;BME280;3132;42.622;23.328;2023-06-22T04:51:47;93316.41;;;23.42;68.69
6198;BME280;3132;42.622;23.328;2023-06-22T04:54:12;93315.69;;;23.88;66.99
6198;BME280;3132;42.622;23.328;2023-06-22T04:56:38;93324.28;;;23.82;66.76
6198;BME280;3132;42.622;23.328;2023-06-22T04:59:06;93326.66;;;23.55;67.08
6198;BME280;3132;42.622;23.328;2023-06-22T05:01:31;93336.53;;;23.55;68.33
6198;BME280;3132;42.622;23.328;2023-06-22T05:03:57;93334.50;;;23.64;66.23
6198;BME280;3132;42.622;23.328;2023-06-22T05:06:26;93337.88;;;24.20;63.56
6198;BME280;3132;42.622;23.328;2023-06-22T05:08:55;93349.94;;;25.14;61.53
6198;BME280;3132;42.622;23.328;2023-06-22T05:11:27;93355.63;;;25.66;58.01
6198;BME280;3132;42.622;23.328;2023-06-22T05:13:53;93354.06;;;25.84;57.04
6198;BME280;3132;42.622;23.328;2023-06-22T05:16:19;93343.06;;;26.08;56.89
6198;BME280;3132;42.622;23.328;2023-06-22T05:18:50;93348.88;;;28.44;48.53
6198;BME280;3132;42.622;23.328;2023-06-22T05:21:15;93345.69;;;28.31;48.77
6198;BME280;3132;42.622;23.328;2023-06-22T05:23:41;93338.69;;;27.50;50.81
6198;BME280;3132;42.622;23.328;2023-06-22T05:26:06;93338.25;;;25.57;57.83
6198;BME280;3132;42.622;23.328;2023-06-22T05:28:34;93340.38;;;24.94;59.32
6198;BME280;3132;42.622;23.328;2023-06-22T05:31:00;93348.38;;;24.94;60.45
6198;BME280;3132;42.622;23.328;2023-06-22T05:33:25;93344.69;;;26.61;54.21
6198;BME280;3132;42.622;23.328;2023-06-22T05:35:50;93357.78;;;27.45;51.17
6198;BME280;3132;42.622;23.328;2023-06-22T05:38:16;93367.78;;;29.69;46.31
6198;BME280;3132;42.622;23.328;2023-06-22T05:40:41;93389.72;;;33.64;36.91
6198;BME280;3132;42.622;23.328;2023-06-22T05:43:06;93400.34;;;35.91;31.85
6198;BME280;3132;42.622;23.328;2023-06-22T05:45:32;93400.03;;;36.79;30.76
6198;BME280;3132;42.622;23.328;2023-06-22T05:47:57;93420.13;;;36.85;30.15
6198;BME280;3132;42.622;23.328;2023-06-22T05:50:22;93426.19;;;37.86;28.31
6198;BME280;3132;42.622;23.328;2023-06-22T05:52:48;93428.78;;;37.61;28.04
6198;BME280;3132;42.622;23.328;2023-06-22T05:55:13;93432.25;;;38.22;27.56
6198;BME280;3132;42.622;23.328;2023-06-22T05:57:40;93437.72;;;39.72;25.07
6198;BME280;3132;42.622;23.328;2023-06-22T06:00:08;93436.78;;;40.01;24.55
6198;BME280;3132;42.622;23.328;2023-06-22T06:02:36;93430.94;;;40.54;24.59
6198;BME280;3132;42.622;23.328;2023-06-22T06:05:02;93423.81;;;38.58;25.99
6198;BME280;3132;42.622;23.328;2023-06-22T06:07:28;93427.31;;;40.14;24.10
6198;BME280;3132;42.622;23.328;2023-06-22T06:09:54;93418.47;;;39.42;25.04
6198;BME280;3132;42.622;23.328;2023-06-22T06:12:20;93412.38;;;37.00;28.58
6198;BME280;3132;42.622;23.328;2023-06-22T06:14:45;93406.53;;;38.48;26.61
6198;BME280;3132;42.622;23.328;2023-06-22T06:17:10;93418.31;;;40.57;24.07
6198;BME280;3132;42.622;23.328;2023-06-22T06:19:36;93406.59;;;39.11;25.87
6198;BME280;3132;42.622;23.328;2023-06-22T06:22:01;93410.19;;;40.01;25.04
6198;BME280;3132;42.622;23.328;2023-06-22T06:24:27;93417.09;;;40.79;24.03
6198;BME280;3132;42.622;23.328;2023-06-22T06:26:52;93400.03;;;38.58;26.36
6198;BME280;3132;42.622;23.328;2023-06-22T06:29:17;93409.28;;;40.47;24.18
6198;BME280;3132;42.622;23.328;2023-06-22T06:31:43;93414.53;;;41.15;23.53
6198;BME280;3132;42.622;23.328;2023-06-22T06:34:08;93418.78;;;40.55;24.55
6198;BME280;3132;42.622;23.328;2023-06-22T06:36:33;93423.75;;;41.09;23.25
6198;BME280;3132;42.622;23.328;2023-06-22T06:38:59;93412.47;;;40.24;24.48
6198;BME280;3132;42.622;23.328;2023-06-22T06:41:24;93414.06;;;40.86;24.28
6198;BME280;3132;42.622;23.328;2023-06-22T06:43:49;93402.31;;;40.03;25.12
6198;BME280;3132;42.622;23.328;2023-06-22T06:46:15;93418.81;;;41.25;23.52
6198;BME280;3132;42.622;23.328;2023-06-22T06:48:40;93403.19;;;40.22;24.96
6198;BME280;3132;42.622;23.328;2023-06-22T06:51:06;93389.97;;;39.64;24.86
6198;BME280;3132;42.622;23.328;2023-06-22T06:53:35;93372.97;;;34.06;33.51
6198;BME280;3132;42.622;23.328;2023-06-22T06:56:00;93358.09;;;33.91;35.12
6198;BME280;3132;42.622;23.328;2023-06-22T06:58:26;93359.34;;;34.13;33.90
6198;BME280;3132;42.622;23.328;2023-06-22T07:00:51;93363.81;;;33.22;35.44
6198;BME280;3132;42.622;23.328;2023-06-22T07:03:16;93365.66;;;31.26;39.59
6198;BME280;3132;42.622;23.328;2023-06-22T07:05:42;93360.72;;;30.82;43.51
6198;BME280;3132;42.622;23.328;2023-06-22T07:08:07;93356.47;;;30.78;43.15
6198;BME280;3132;42.622;23.328;2023-06-22T07:10:33;93353.38;;;30.41;43.25
6198;BME280;3132;42.622;23.328;2023-06-22T07:12:58;93351.25;;;29.03;46.17
6198;BME280;3132;42.622;23.328;2023-06-22T07:15:23;93350.66;;;28.73;47.90
6198;BME280;3132;42.622;23.328;2023-06-22T07:17:49;93358.44;;;29.46;47.25
6198;BME280;3132;42.622;23.328;2023-06-22T07:20:14;93346.09;;;29.38;46.95
6198;BME280;3132;42.622;23.328;2023-06-22T07:22:43;93358.09;;;28.97;51.35
6198;BME280;3132;42.622;23.328;2023-06-22T07:25:10;93361.44;;;29.30;47.15
6198;BME280;3132;42.622;23.328;2023-06-22T07:27:39;93345.50;;;28.54;50.37
6198;BME280;3132;42.622;23.328;2023-06-22T07:30:09;93347.16;;;28.65;47.55
6198;BME280;3132;42.622;23.328;2023-06-22T07:32:35;93353.69;;;28.68;45.83
6198;BME280;3132;42.622;23.328;2023-06-22T07:35:01;93357.78;;;28.55;47.76
6198;BME280;3132;42.622;23.328;2023-06-22T07:37:27;93347.00;;;28.07;53.71
6198;BME280;3132;42.622;23.328;2023-06-22T07:39:54;93356.03;;;27.89;52.77
6198;BME280;3132;42.622;23.328;2023-06-22T07:42:27;93350.94;;;28.57;48.17
6198;BME280;3132;42.622;23.328;2023-06-22T07:44:53;93324.78;;;28.10;51.75
6198;BME280;3132;42.622;23.328;2023-06-22T07:47:18;93352.88;;;28.20;52.12
6198;BME280;3132;42.622;23.328;2023-06-22T07:49:45;93355.91;;;28.15;51.67
6198;BME280;3132;42.622;23.328;2023-06-22T07:52:10;93356.06;;;28.36;50.23
6198;BME280;3132;42.622;23.328;2023-06-22T07:54:36;93359.13;;;28.31;51.56
6198;BME280;3132;42.622;23.328;2023-06-22T07:57:01;93363.06;;;28.41;52.36
6198;BME280;3132;42.622;23.328;2023-06-22T07:59:27;93355.78;;;28.92;48.84
6198;BME280;3132;42.622;23.328;2023-06-22T08:01:52;93356.81;;;29.31;48.68
6198;BME280;3132;42.622;23.328;2023-06-22T08:04:17;93354.41;;;29.12;49.31
6198;BME280;3132;42.622;23.328;2023-06-22T08:06:43;93358.84;;;29.48;47.93
6198;BME280;3132;42.622;23.328;2023-06-22T08:09:08;93348.56;;;29.67;45.75
6198;BME280;3132;42.622;23.328;2023-06-22T08:11:34;93344.19;;;28.84;49.85
6198;BME280;3132;42.622;23.328;2023-06-22T08:13:59;93340.53;;;29.06;48.40
6198;BME280;3132;42.622;23.328;2023-06-22T08:16:25;93327.91;;;29.17;47.37
6198;BME280;3132;42.622;23.328;2023-06-22T08:18:50;93338.41;;;29.43;48.12
6198;BME280;3132;42.622;23.328;2023-06-22T08:21:16;93342.38;;;29.67;47.18
6198;BME280;3132;42.622;23.328;2023-06-22T08:23:42;93328.28;;;29.16;46.85
6198;BME280;3132;42.622;23.328;2023-06-22T08:26:07;93341.06;;;29.33;48.73
6198;BME280;3132;42.622;23.328;2023-06-22T08:28:33;93336.09;;;29.35;48.35
6198;BME280;3132;42.622;23.328;2023-06-22T08:30:59;93329.00;;;29.09;48.54
6198;BME280;3132;42.622;23.328;2023-06-22T08:33:26;93316.25;;;29.74;47.61
6198;BME280;3132;42.622;23.328;2023-06-22T08:35:54;93328.84;;;29.49;47.29
6198;BME280;3132;42.622;23.328;2023-06-22T08:38:20;93332.47;;;30.03;48.38
6198;BME280;3132;42.622;23.328;2023-06-22T08:40:45;93336.28;;;29.84;46.07
6198;BME280;3132;42.622;23.328;2023-06-22T08:43:11;93336.81;;;30.60;45.67
6198;BME280;3132;42.622;23.328;2023-06-22T08:45:36;93338.75;;;30.59;44.72
6198;BME280;3132;42.622;23.328;2023-06-22T08:48:02;93342.03;;;29.72;46.42
6198;BME280;3132;42.622;23.328;2023-06-22T08:50:27;93347.91;;;30.13;45.57
6198;BME280;3132;42.622;23.328;2023-06-22T08:52:53;93355.28;;;30.51;43.53
6198;BME280;3132;42.622;23.328;2023-06-22T08:55:18;93353.38;;;30.51;43.28
6198;BME280;3132;42.622;23.328;2023-06-22T08:57:43;93346.28;;;29.87;45.08
6198;BME280;3132;42.622;23.328;2023-06-22T09:00:09;93340.88;;;29.01;46.96
6198;BME280;3132;42.622;23.328;2023-06-22T09:02:42;93337.22;;;29.37;48.52
6198;BME280;3132;42.622;23.328;2023-06-22T09:05:07;93332.72;;;28.40;50.70
6198;BME280;3132;42.622;23.328;2023-06-22T09:07:33;93326.47;;;28.73;52.13
6198;BME280;3132;42.622;23.328;2023-06-22T09:09:59;93326.59;;;28.94;48.33
6198;BME280;3132;42.622;23.328;2023-06-22T09:12:25;93310.66;;;28.17;52.44
6198;BME280;3132;42.622;23.328;2023-06-22T09:14:52;93323.41;;;28.74;50.22
6198;BME280;3132;42.622;23.328;2023-06-22T09:17:18;93317.97;;;28.64;51.67
6198;BME280;3132;42.622;23.328;2023-06-22T09:19:44;93328.56;;;29.00;52.97
6198;BME280;3132;42.622;23.328;2023-06-22T09:22:09;93322.78;;;28.95;47.44
6198;BME280;3132;42.622;23.328;2023-06-22T09:24:34;93328.34;;;28.65;48.90
6198;BME280;3132;42.622;23.328;2023-06-22T09:27:00;93322.44;;;29.03;47.25
6198;BME280;3132;42.622;23.328;2023-06-22T09:29:25;93322.19;;;29.22;48.46
6198;BME280;3132;42.622;23.328;2023-06-22T09:31:51;93310.03;;;28.85;49.42
6198;BME280;3132;42.622;23.328;2023-06-22T09:34:18;93332.13;;;28.57;49.59
6198;BME280;3132;42.622;23.328;2023-06-22T09:36:46;93329.56;;;28.75;49.16
6198;BME280;3132;42.622;23.328;2023-06-22T09:39:11;93343.47;;;28.91;50.84
6198;BME280;3132;42.622;23.328;2023-06-22T09:41:37;93338.66;;;29.10;46.74
6198;BME280;3132;42.622;23.328;2023-06-22T09:44:02;93331.91;;;29.44;44.60
6198;BME280;3132;42.622;23.328;2023-06-22T09:46:27;93336.13;;;29.45;43.93
6198;BME280;3132;42.622;23.328;2023-06-22T09:48:53;93327.75;;;28.46;48.38
6198;BME280;3132;42.622;23.328;2023-06-22T09:51:19;93330.41;;;28.86;47.98
6198;BME280;3132;42.622;23.328;2023-06-22T09:53:47;93327.88;;;28.56;46.95
6198;BME280;3132;42.622;23.328;2023-06-22T09:56:12;93336.53;;;28.86;46.92
6198;BME280;3132;42.622;23.328;2023-06-22T09:58:41;93327.25;;;29.45;47.02
6198;BME280;3132;42.622;23.328;2023-06-22T10:01:07;93321.69;;;29.85;44.54
6198;BME280;3132;42.622;23.328;2023-06-22T10:03:32;93312.44;;;29.83;42.12
6198;BME280;3132;42.622;23.328;2023-06-22T10:05:57;93320.41;;;29.58;45.28
6198;BME280;3132;42.622;23.328;2023-06-22T10:08:23;93318.09;;;29.49;40.76
6198;BME280;3132;42.622;23.328;2023-06-22T10:10:48;93290.72;;;29.37;42.20
6198;BME280;3132;42.622;23.328;2023-06-22T10:13:13;93309.97;;;29.42;43.44
6198;BME280;3132;42.622;23.328;2023-06-22T10:15:40;93308.84;;;29.57;40.62
6198;BME280;3132;42.622;23.328;2023-06-22T10:18:05;93312.56;;;29.18;41.87
6198;BME280;3132;42.622;23.328;2023-06-22T10:20:30;93297.94;;;28.54;43.97
6198;BME280;3132;42.622;23.328;2023-06-22T10:22:56;93310.47;;;28.90;42.32
6198;BME280;3132;42.622;23.328;2023-06-22T10:25:22;93307.78;;;28.97;45.29
6198;BME280;3132;42.622;23.328;2023-06-22T10:27:47;93311.03;;;29.24;41.83
6198;BME280;3132;42.622;23.328;2023-06-22T10:30:14;93310.72;;;29.32;41.56
6198;BME280;3132;42.622;23.328;2023-06-22T10:32:40;93302.09;;;29.92;40.34
6198;BME280;3132;42.622;23.328;2023-06-22T10:35:06;93303.22;;;29.91;39.38
6198;BME280;3132;42.622;23.328;2023-06-22T10:37:32;93294.75;;;30.03;41.12
6198;BME280;3132;42.622;23.328;2023-06-22T10:39:57;93306.34;;;30.14;40.90
6198;BME280;3132;42.622;23.328;2023-06-22T10:42:23;93296.31;;;29.90;40.59
6198;BME280;3132;42.622;23.328;2023-06-22T10:44:48;93295.50;;;29.86;40.71
6198;BME280;3132;42.622;23.328;2023-06-22T10:47:14;93287.88;;;30.16;39.36
6198;BME280;3132;42.622;23.328;2023-06-22T10:49:39;93291.69;;;29.87;39.93
6198;BME280;3132;42.622;23.328;2023-06-22T10:52:06;93292.06;;;29.82;39.89
6198;BME280;3132;42.622;23.328;2023-06-22T10:54:33;93291.16;;;29.49;40.32
6198;BME280;3132;42.622;23.328;2023-06-22T10:56:59;93293.13;;;29.63;40.74
6198;BME280;3132;42.622;23.328;2023-06-22T10:59:24;93289.91;;;29.29;40.85
6198;BME280;3132;42.622;23.328;2023-06-22T11:01:51;93290.78;;;29.51;41.85
6198;BME280;3132;42.622;23.328;2023-06-22T11:04:16;93290.88;;;29.83;39.81
6198;BME280;3132;42.622;23.328;2023-06-22T11:06:43;93285.47;;;29.68;42.02
6198;BME280;3132;42.622;23.328;2023-06-22T11:09:08;93283.94;;;29.78;42.06
6198;BME280;3132;42.622;23.328;2023-06-22T11:11:34;93288.97;;;29.83;42.75
6198;BME280;3132;42.622;23.328;2023-06-22T11:13:59;93278.94;;;29.73;42.26
6198;BME280;3132;42.622;23.328;2023-06-22T11:16:24;93287.50;;;30.28;40.18
6198;BME280;3132;42.622;23.328;2023-06-22T11:18:50;93271.34;;;30.31;43.66
6198;BME280;3132;42.622;23.328;2023-06-22T11:21:15;93290.19;;;30.70;40.17
6198;BME280;3132;42.622;23.328;2023-06-22T11:23:42;93286.34;;;30.64;39.66
6198;BME280;3132;42.622;23.328;2023-06-22T11:26:07;93280.16;;;30.00;42.10
6198;BME280;3132;42.622;23.328;2023-06-22T11:28:33;93282.50;;;30.26;39.57
6198;BME280;3132;42.622;23.328;2023-06-22T11:30:58;93274.78;;;30.04;39.21
6198;BME280;3132;42.622;23.328;2023-06-22T11:33:24;93271.72;;;30.44;38.81
6198;BME280;3132;42.622;23.328;2023-06-22T11:35:49;93276.72;;;30.70;38.98
6198;BME280;3132;42.622;23.328;2023-06-22T11:38:15;93264.78;;;30.15;39.47
6198;BME280;3132;42.622;23.328;2023-06-22T11:40:40;93269.75;;;29.92;38.01
6198;BME280;3132;42.622;23.328;2023-06-22T11:43:05;93280.16;;;30.14;37.44
6198;BME280;3132;42.622;23.328;2023-06-22T11:45:31;93263.66;;;30.37;39.08
6198;BME280;3132;42.622;23.328;2023-06-22T11:47:56;93268.22;;;29.98;40.98
6198;BME280;3132;42.622;23.328;2023-06-22T11:50:21;93255.91;;;29.90;38.24
6198;BME280;3132;42.622;23.328;2023-06-22T11:52:47;93257.09;;;30.24;37.84
6198;BME280;3132;42.622;23.328;2023-06-22T11:55:12;93236.94;;;29.54;42.50
6198;BME280;3132;42.622;23.328;2023-06-22T11:57:52;93251.56;;;29.60;42.21
6198;BME280;3132;42.622;23.328;2023-06-22T12:00:18;93247.06;;;30.17;42.33
6198;BME280;3132;42.622;23.328;2023-06-22T12:02:44;93254.78;;;30.43;40.97
6198;BME280;3132;42.622;23.328;2023-06-22T12:05:12;93254.75;;;30.05;39.69
6198;BME280;3132;42.622;23.328;2023-06-22T12:07:38;93253.44;;;29.32;40.51
6198;BME280;3132;42.622;23.328;2023-06-22T12:10:03;93254.75;;;29.84;40.48
6198;BME280;3132;42.622;23.328;2023-06-22T12:12:29;93247.84;;;30.35;40.99
6198;BME280;3132;42.622;23.328;2023-06-22T12:14:54;93268.66;;;30.52;41.40
6198;BME280;3132;42.622;23.328;2023-06-22T12:17:20;93273.66;;;30.82;39.53
6198;BME280;3132;42.622;23.328;2023-06-22T12:19:45;93269.81;;;30.27;41.20
6198;BME280;3132;42.622;23.328;2023-06-22T12:22:11;93254.72;;;29.77;40.77
6198;BME280;3132;42.622;23.328;2023-06-22T12:24:36;93252.25;;;29.33;41.84
6198;BME280;3132;42.622;23.328;2023-06-22T12:27:02;93256.84;;;29.25;43.86
6198;BME280;3132;42.622;23.328;2023-06-22T12:29:28;93264.16;;;29.21;45.14
6198;BME280;3132;42.622;23.328;2023-06-22T12:31:54;93253.50;;;28.74;45.92
6198;BME280;3132;42.622;23.328;2023-06-22T12:34:19;93252.22;;;28.51;47.31
6198;BME280;3132;42.622;23.328;2023-06-22T12:36:44;93265.78;;;28.75;47.92
6198;BME280;3132;42.622;23.328;2023-06-22T12:39:11;93278.03;;;28.66;48.91
6198;BME280;3132;42.622;23.328;2023-06-22T12:41:36;93296.03;;;28.11;50.34
6198;BME280;3132;42.622;23.328;2023-06-22T12:44:02;93287.09;;;26.48;64.63
6198;BME280;3132;42.622;23.328;2023-06-22T12:46:27;93264.47;;;24.45;77.21
6198;BME280;3132;42.622;23.328;2023-06-22T12:48:52;93273.88;;;23.77;87.50
6198;BME280;3132;42.622;23.328;2023-06-22T12:51:22;93287.59;;;23.47;91.68
6198;BME280;3132;42.622;23.328;2023-06-22T12:53:47;93277.16;;;23.15;100.00
6198;BME280;3132;42.622;23.328;2023-06-22T12:56:12;93301.91;;;23.27;100.00
6198;BME280;3132;42.622;23.328;2023-06-22T12:58:38;93306.06;;;23.40;100.00
6198;BME280;3132;42.622;23.328;2023-06-22T13:01:03;93302.09;;;23.34;100.00
6198;BME280;3132;42.622;23.328;2023-06-22T13:03:29;93311.81;;;23.70;100.00
6198;BME280;3132;42.622;23.328;2023-06-22T13:05:54;93317.13;;;23.54;99.92
6198;BME280;3132;42.622;23.328;2023-06-22T13:08:20;93308.53;;;23.33;95.81
6198;BME280;3132;42.622;23.328;2023-06-22T13:10:45;93318.84;;;23.62;94.30
6198;BME280;3132;42.622;23.328;2023-06-22T13:13:10;93311.84;;;23.42;94.72